sensor_id;sensor_type;location;lat;lon;timestamp;P1;durP1;ratioP1;P2;durP2;ratioP2
30571;SDS011;17348;50.948;10.696;2023-06-22T00:01:58;6.55;;;3.80;;
30571;SDS011;17348;50.948;10.696;2023-06-22T00:05:01;6.45;;;3.95;;
30571;SDS011;17348;50.948;10.696;2023-06-22T00:08:04;5.03;;;3.58;;
30571;SDS011;17348;50.948;10.696;2023-06-22T00:11:08;6.30;;;3.85;;
30571;SDS011;17348;50.948;10.696;2023-06-22T00:14:10;7.85;;;4.00;;
30571;SDS011;17348;50.948;10.696;2023-06-22T00:17:12;5.53;;;3.42;;
30571;SDS011;17348;50.948;10.696;2023-06-22T00:20:15;8.00;;;3.20;;
30571;SDS011;17348;50.948;10.696;2023-06-22T00:23:18;5.97;;;3.30;;
30571;SDS011;17348;50.948;10.696;2023-06-22T00:26:22;6.93;;;3.67;;
30571;SDS011;17348;50.948;10.696;2023-06-22T00:29:25;5.70;;;3.22;;
30571;SDS011;17348;50.948;10.696;2023-06-22T00:32:27;6.32;;;3.53;;
30571;SDS011;17348;50.948;10.696;2023-06-22T00:35:30;9.38;;;4.05;;
30571;SDS011;17348;50.948;10.696;2023-06-22T00:38:32;7.90;;;4.00;;
30571;SDS011;17348;50.948;10.696;2023-06-22T00:41:36;7.50;;;4.43;;
30571;SDS011;17348;50.948;10.696;2023-06-22T00:44:38;7.53;;;4.50;;
30571;SDS011;17348;50.948;10.696;2023-06-22T00:47:41;7.43;;;4.03;;
30571;SDS011;17348;50.948;10.696;2023-06-22T00:50:44;7.05;;;4.35;;
30571;SDS011;17348;50.948;10.696;2023-06-22T00:53:51;10.60;;;4.57;;
30571;SDS011;17348;50.948;10.696;2023-06-22T00:56:55;5.55;;;3.65;;
30571;SDS011;17348;50.948;10.696;2023-06-22T00:59:59;7.40;;;3.40;;
30571;SDS011;17348;50.948;10.696;2023-06-22T01:03:02;6.22;;;3.78;;
30571;SDS011;17348;50.948;10.696;2023-06-22T01:06:07;5.68;;;4.15;;
30571;SDS011;17348;50.948;10.696;2023-06-22T01:09:18;6.03;;;4.00;;
30571;SDS011;17348;50.948;10.696;2023-06-22T01:12:25;6.55;;;4.15;;
30571;SDS011;17348;50.948;10.696;2023-06-22T01:15:36;9.13;;;4.22;;
30571;SDS011;17348;50.948;10.696;2023-06-22T01:18:42;6.40;;;3.58;;
30571;SDS011;17348;50.948;10.696;2023-06-22T01:21:45;6.55;;;3.95;;
30571;SDS011;17348;50.948;10.696;2023-06-22T01:24:51;6.50;;;4.35;;
30571;SDS011;17348;50.948;10.696;2023-06-22T01:31:08;7.28;;;4.32;;
30571;SDS011;17348;50.948;10.696;2023-06-22T01:34:12;6.50;;;4.28;;
30571;SDS011;17348;50.948;10.696;2023-06-22T01:37:15;7.65;;;3.95;;
30571;SDS011;17348;50.948;10.696;2023-06-22T01:40:18;10.35;;;4.78;;
30571;SDS011;17348;50.948;10.696;2023-06-22T01:43:21;7.72;;;3.63;;
30571;SDS011;17348;50.948;10.696;2023-06-22T01:46:27;12.07;;;3.83;;
30571;SDS011;17348;50.948;10.696;2023-06-22T01:49:29;6.82;;;4.32;;
30571;SDS011;17348;50.948;10.696;2023-06-22T01:52:32;7.82;;;4.30;;
30571;SDS011;17348;50.948;10.696;2023-06-22T01:55:35;10.85;;;4.40;;
30571;SDS011;17348;50.948;10.696;2023-06-22T01:58:40;10.05;;;4.90;;
30571;SDS011;17348;50.948;10.696;2023-06-22T02:01:50;12.95;;;4.65;;
30571;SDS011;17348;50.948;10.696;2023-06-22T02:05:01;7.43;;;4.38;;
30571;SDS011;17348;50.948;10.696;2023-06-22T02:08:09;8.85;;;5.10;;
30571;SDS011;17348;50.948;10.696;2023-06-22T02:11:13;7.85;;;5.00;;
30571;SDS011;17348;50.948;10.696;2023-06-22T02:14:18;9.07;;;4.57;;
30571;SDS011;17348;50.948;10.696;2023-06-22T02:17:22;10.63;;;5.20;;
30571;SDS011;17348;50.948;10.696;2023-06-22T02:20:27;9.50;;;5.43;;
30571;SDS011;17348;50.948;10.696;2023-06-22T02:23:29;6.50;;;4.32;;
30571;SDS011;17348;50.948;10.696;2023-06-22T02:26:33;7.22;;;4.15;;
30571;SDS011;17348;50.948;10.696;2023-06-22T02:29:36;6.72;;;4.05;;
30571;SDS011;17348;50.948;10.696;2023-06-22T02:32:40;10.80;;;5.10;;
30571;SDS011;17348;50.948;10.696;2023-06-22T02:35:43;10.73;;;5.60;;
30571;SDS011;17348;50.948;10.696;2023-06-22T02:38:48;11.13;;;6.30;;
30571;SDS011;17348;50.948;10.696;2023-06-22T02:41:51;9.40;;;5.57;;
30571;SDS011;17348;50.948;10.696;2023-06-22T02:44:54;11.50;;;5.13;;
30571;SDS011;17348;50.948;10.696;2023-06-22T02:47:58;11.15;;;5.53;;
30571;SDS011;17348;50.948;10.696;2023-06-22T02:51:00;12.52;;;5.75;;
30571;SDS011;17348;50.948;10.696;2023-06-22T02:54:03;8.73;;;5.25;;
30571;SDS011;17348;50.948;10.696;2023-06-22T02:57:05;10.13;;;5.35;;
30571;SDS011;17348;50.948;10.696;2023-06-22T03:00:08;12.68;;;5.28;;
30571;SDS011;17348;50.948;10.696;2023-06-22T03:03:18;10.85;;;5.63;;
30571;SDS011;17348;50.948;10.696;2023-06-22T03:06:21;11.20;;;5.38;;
30571;SDS011;17348;50.948;10.696;2023-06-22T03:09:28;13.75;;;6.07;;
30571;SDS011;17348;50.948;10.696;2023-06-22T03:12:31;8.52;;;5.15;;
30571;SDS011;17348;50.948;10.696;2023-06-22T03:15:33;9.27;;;5.30;;
30571;SDS011;17348;50.948;10.696;2023-06-22T03:18:37;11.05;;;5.47;;
30571;SDS011;17348;50.948;10.696;2023-06-22T03:21:39;11.73;;;5.18;;
30571;SDS011;17348;50.948;10.696;2023-06-22T03:24:41;11.80;;;5.72;;
30571;SDS011;17348;50.948;10.696;2023-06-22T03:27:44;13.05;;;5.30;;
30571;SDS011;17348;50.948;10.696;2023-06-22T03:30:46;11.35;;;5.03;;
30571;SDS011;17348;50.948;10.696;2023-06-22T03:33:50;15.55;;;5.30;;
30571;SDS011;17348;50.948;10.696;2023-06-22T03:36:52;14.00;;;5.25;;
30571;SDS011;17348;50.948;10.696;2023-06-22T03:39:55;11.05;;;5.30;;
30571;SDS011;17348;50.948;10.696;2023-06-22T03:42:57;14.43;;;5.82;;
30571;SDS011;17348;50.948;10.696;2023-06-22T03:45:59;17.20;;;6.35;;
30571;SDS011;17348;50.948;10.696;2023-06-22T03:49:03;11.90;;;5.30;;
30571;SDS011;17348;50.948;10.696;2023-06-22T03:52:06;14.73;;;6.43;;
30571;SDS011;17348;50.948;10.696;2023-06-22T03:55:08;9.40;;;6.00;;
30571;SDS011;17348;50.948;10.696;2023-06-22T03:58:11;10.35;;;6.10;;
30571;SDS011;17348;50.948;10.696;2023-06-22T04:01:13;13.13;;;6.07;;
30571;SDS011;17348;50.948;10.696;2023-06-22T04:04:18;10.18;;;5.38;;
30571;SDS011;17348;50.948;10.696;2023-06-22T04:07:21;10.90;;;5.78;;
30571;SDS011;17348;50.948;10.696;2023-06-22T04:10:23;10.13;;;5.30;;
30571;SDS011;17348;50.948;10.696;2023-06-22T04:13:26;10.02;;;5.68;;
30571;SDS011;17348;50.948;10.696;2023-06-22T04:16:28;9.95;;;6.78;;
30571;SDS011;17348;50.948;10.696;2023-06-22T04:19:32;16.98;;;7.18;;
30571;SDS011;17348;50.948;10.696;2023-06-22T04:22:34;13.57;;;6.47;;
30571;SDS011;17348;50.948;10.696;2023-06-22T04:25:36;10.50;;;6.00;;
30571;SDS011;17348;50.948;10.696;2023-06-22T04:28:39;17.70;;;6.85;;
30571;SDS011;17348;50.948;10.696;2023-06-22T04:31:41;18.40;;;7.22;;
30571;SDS011;17348;50.948;10.696;2023-06-22T04:34:45;10.60;;;6.47;;
30571;SDS011;17348;50.948;10.696;2023-06-22T04:37:47;17.70;;;7.80;;
30571;SDS011;17348;50.948;10.696;2023-06-22T04:40:50;13.15;;;6.70;;
30571;SDS011;17348;50.948;10.696;2023-06-22T04:43:53;18.67;;;6.78;;
30571;SDS011;17348;50.948;10.696;2023-06-22T04:47:01;14.00;;;6.93;;
30571;SDS011;17348;50.948;10.696;2023-06-22T04:50:08;17.75;;;6.60;;
30571;SDS011;17348;50.948;10.696;2023-06-22T04:53:11;19.30;;;7.63;;
30571;SDS011;17348;50.948;10.696;2023-06-22T04:56:13;16.38;;;7.38;;
30571;SDS011;17348;50.948;10.696;2023-06-22T04:59:18;17.83;;;6.88;;
30571;SDS011;17348;50.948;10.696;2023-06-22T05:02:20;18.55;;;6.35;;
30571;SDS011;17348;50.948;10.696;2023-06-22T05:05:25;16.90;;;6.70;;
30571;SDS011;17348;50.948;10.696;2023-06-22T05:08:27;14.57;;;6.88;;
30571;SDS011;17348;50.948;10.696;2023-06-22T05:11:29;15.25;;;6.55;;
30571;SDS011;17348;50.948;10.696;2023-06-22T05:14:32;13.18;;;6.30;;
30571;SDS011;17348;50.948;10.696;2023-06-22T05:17:34;13.52;;;6.25;;
30571;SDS011;17348;50.948;10.696;2023-06-22T05:20:43;11.30;;;5.45;;
30571;SDS011;17348;50.948;10.696;2023-06-22T05:23:45;11.52;;;5.95;;
30571;SDS011;17348;50.948;10.696;2023-06-22T05:26:47;12.25;;;6.90;;
30571;SDS011;17348;50.948;10.696;2023-06-22T05:29:49;14.15;;;6.38;;
30571;SDS011;17348;50.948;10.696;2023-06-22T05:32:52;14.63;;;6.60;;
30571;SDS011;17348;50.948;10.696;2023-06-22T05:35:55;15.43;;;6.03;;
30571;SDS011;17348;50.948;10.696;2023-06-22T05:38:58;29.95;;;6.70;;
30571;SDS011;17348;50.948;10.696;2023-06-22T05:42:00;11.50;;;7.20;;
30571;SDS011;17348;50.948;10.696;2023-06-22T05:45:03;10.27;;;5.68;;
30571;SDS011;17348;50.948;10.696;2023-06-22T05:48:06;16.80;;;6.07;;
30571;SDS011;17348;50.948;10.696;2023-06-22T05:51:10;20.30;;;6.85;;
30571;SDS011;17348;50.948;10.696;2023-06-22T05:54:12;11.63;;;5.70;;
30571;SDS011;17348;50.948;10.696;2023-06-22T05:57:16;14.52;;;7.25;;
30571;SDS011;17348;50.948;10.696;2023-06-22T06:00:19;11.35;;;6.10;;
30571;SDS011;17348;50.948;10.696;2023-06-22T06:03:22;11.90;;;6.85;;
30571;SDS011;17348;50.948;10.696;2023-06-22T06:06:26;22.67;;;6.35;;
30571;SDS011;17348;50.948;10.696;2023-06-22T06:09:29;17.17;;;6.28;;
30571;SDS011;17348;50.948;10.696;2023-06-22T06:12:31;17.70;;;6.75;;
30571;SDS011;17348;50.948;10.696;2023-06-22T06:15:33;8.48;;;5.72;;
30571;SDS011;17348;50.948;10.696;2023-06-22T06:18:36;9.90;;;6.05;;
30571;SDS011;17348;50.948;10.696;2023-06-22T06:21:40;11.35;;;6.43;;
30571;SDS011;17348;50.948;10.696;2023-06-22T06:24:42;10.52;;;6.07;;
30571;SDS011;17348;50.948;10.696;2023-06-22T06:27:45;12.52;;;6.43;;
30571;SDS011;17348;50.948;10.696;2023-06-22T06:30:48;10.55;;;5.82;;
30571;SDS011;17348;50.948;10.696;2023-06-22T06:33:52;11.00;;;5.93;;
30571;SDS011;17348;50.948;10.696;2023-06-22T06:36:56;9.77;;;5.97;;
30571;SDS011;17348;50.948;10.696;2023-06-22T06:39:58;9.38;;;6.57;;
30571;SDS011;17348;50.948;10.696;2023-06-22T06:43:00;10.13;;;5.60;;
30571;SDS011;17348;50.948;10.696;2023-06-22T06:46:03;14.68;;;6.45;;
30571;SDS011;17348;50.948;10.696;2023-06-22T06:49:05;9.50;;;5.47;;
30571;SDS011;17348;50.948;10.696;2023-06-22T06:52:09;10.23;;;6.13;;
30571;SDS011;17348;50.948;10.696;2023-06-22T06:55:11;14.10;;;6.45;;
30571;SDS011;17348;50.948;10.696;2023-06-22T06:58:14;16.45;;;6.15;;
30571;SDS011;17348;50.948;10.696;2023-06-22T07:01:17;9.85;;;6.78;;
30571;SDS011;17348;50.948;10.696;2023-06-22T07:04:20;13.57;;;6.28;;
30571;SDS011;17348;50.948;10.696;2023-06-22T07:07:24;12.85;;;5.85;;
30571;SDS011;17348;50.948;10.696;2023-06-22T07:10:26;17.63;;;6.90;;
30571;SDS011;17348;50.948;10.696;2023-06-22T07:13:28;15.98;;;7.60;;
30571;SDS011;17348;50.948;10.696;2023-06-22T07:16:31;15.07;;;7.45;;
30571;SDS011;17348;50.948;10.696;2023-06-22T07:19:33;12.27;;;7.32;;
30571;SDS011;17348;50.948;10.696;2023-06-22T07:22:37;12.90;;;6.57;;
30571;SDS011;17348;50.948;10.696;2023-06-22T07:25:40;12.32;;;6.85;;
30571;SDS011;17348;50.948;10.696;2023-06-22T07:28:44;23.08;;;7.50;;
30571;SDS011;17348;50.948;10.696;2023-06-22T07:31:47;13.35;;;7.40;;
30571;SDS011;17348;50.948;10.696;2023-06-22T07:34:50;10.95;;;6.75;;
30571;SDS011;17348;50.948;10.696;2023-06-22T07:37:54;12.00;;;7.80;;
30571;SDS011;17348;50.948;10.696;2023-06-22T07:40:56;11.45;;;6.90;;
30571;SDS011;17348;50.948;10.696;2023-06-22T07:43:59;10.15;;;6.70;;
30571;SDS011;17348;50.948;10.696;2023-06-22T07:47:01;14.25;;;7.57;;
30571;SDS011;17348;50.948;10.696;2023-06-22T07:50:04;15.77;;;7.50;;
30571;SDS011;17348;50.948;10.696;2023-06-22T07:53:08;14.45;;;7.07;;
30571;SDS011;17348;50.948;10.696;2023-06-22T07:56:10;11.10;;;7.10;;
30571;SDS011;17348;50.948;10.696;2023-06-22T07:59:13;11.02;;;7.40;;
30571;SDS011;17348;50.948;10.696;2023-06-22T08:02:15;11.52;;;7.38;;
30571;SDS011;17348;50.948;10.696;2023-06-22T08:05:17;12.43;;;7.30;;
30571;SDS011;17348;50.948;10.696;2023-06-22T08:08:21;15.23;;;8.00;;
30571;SDS011;17348;50.948;10.696;2023-06-22T08:11:23;14.82;;;7.70;;
30571;SDS011;17348;50.948;10.696;2023-06-22T08:14:26;14.95;;;6.95;;
30571;SDS011;17348;50.948;10.696;2023-06-22T08:17:29;14.20;;;6.97;;
30571;SDS011;17348;50.948;10.696;2023-06-22T08:20:32;14.43;;;8.23;;
30571;SDS011;17348;50.948;10.696;2023-06-22T08:23:35;13.23;;;7.60;;
30571;SDS011;17348;50.948;10.696;2023-06-22T08:26:38;11.23;;;7.50;;
30571;SDS011;17348;50.948;10.696;2023-06-22T08:29:40;14.80;;;7.85;;
30571;SDS011;17348;50.948;10.696;2023-06-22T08:32:43;14.98;;;7.47;;
30571;SDS011;17348;50.948;10.696;2023-06-22T08:35:45;19.23;;;8.38;;
30571;SDS011;17348;50.948;10.696;2023-06-22T08:38:49;16.95;;;7.90;;
30571;SDS011;17348;50.948;10.696;2023-06-22T08:41:54;15.35;;;8.32;;
30571;SDS011;17348;50.948;10.696;2023-06-22T08:44:56;11.15;;;7.40;;
30571;SDS011;17348;50.948;10.696;2023-06-22T08:47:59;15.40;;;7.05;;
30571;SDS011;17348;50.948;10.696;2023-06-22T08:51:01;14.95;;;7.50;;
30571;SDS011;17348;50.948;10.696;2023-06-22T08:54:05;13.00;;;7.38;;
30571;SDS011;17348;50.948;10.696;2023-06-22T08:57:07;16.35;;;8.05;;
30571;SDS011;17348;50.948;10.696;2023-06-22T09:00:10;15.68;;;8.68;;
30571;SDS011;17348;50.948;10.696;2023-06-22T09:03:17;16.45;;;7.75;;
30571;SDS011;17348;50.948;10.696;2023-06-22T09:06:21;12.98;;;6.82;;
30571;SDS011;17348;50.948;10.696;2023-06-22T09:09:24;18.10;;;8.50;;
30571;SDS011;17348;50.948;10.696;2023-06-22T09:12:27;17.13;;;8.68;;
30571;SDS011;17348;50.948;10.696;2023-06-22T09:15:31;14.40;;;8.30;;
30571;SDS011;17348;50.948;10.696;2023-06-22T09:18:34;18.10;;;8.55;;
30571;SDS011;17348;50.948;10.696;2023-06-22T09:21:37;18.35;;;8.23;;
30571;SDS011;17348;50.948;10.696;2023-06-22T09:24:41;20.00;;;8.13;;
30571;SDS011;17348;50.948;10.696;2023-06-22T09:27:43;12.82;;;7.63;;
30571;SDS011;17348;50.948;10.696;2023-06-22T09:30:46;14.90;;;8.52;;
30571;SDS011;17348;50.948;10.696;2023-06-22T09:33:48;12.73;;;7.97;;
30571;SDS011;17348;50.948;10.696;2023-06-22T09:36:50;11.43;;;7.90;;
30571;SDS011;17348;50.948;10.696;2023-06-22T09:39:54;18.65;;;8.82;;
30571;SDS011;17348;50.948;10.696;2023-06-22T09:42:56;14.18;;;8.50;;
30571;SDS011;17348;50.948;10.696;2023-06-22T09:45:59;18.25;;;8.25;;
30571;SDS011;17348;50.948;10.696;2023-06-22T09:49:02;13.52;;;7.10;;
30571;SDS011;17348;50.948;10.696;2023-06-22T09:52:05;15.70;;;7.97;;
30571;SDS011;17348;50.948;10.696;2023-06-22T09:55:09;13.75;;;8.65;;
30571;SDS011;17348;50.948;10.696;2023-06-22T09:58:12;12.73;;;8.27;;
30571;SDS011;17348;50.948;10.696;2023-06-22T10:01:14;12.55;;;7.70;;
30571;SDS011;17348;50.948;10.696;2023-06-22T10:04:16;18.23;;;8.52;;
30571;SDS011;17348;50.948;10.696;2023-06-22T10:07:19;22.00;;;8.35;;
30571;SDS011;17348;50.948;10.696;2023-06-22T10:10:22;16.92;;;7.82;;
30571;SDS011;17348;50.948;10.696;2023-06-22T10:13:25;16.13;;;8.93;;
30571;SDS011;17348;50.948;10.696;2023-06-22T10:16:30;22.98;;;8.13;;
30571;SDS011;17348;50.948;10.696;2023-06-22T10:19:32;10.27;;;7.60;;
30571;SDS011;17348;50.948;10.696;2023-06-22T10:22:38;11.73;;;6.97;;
30571;SDS011;17348;50.948;10.696;2023-06-22T10:25:42;12.00;;;7.55;;
30571;SDS011;17348;50.948;10.696;2023-06-22T10:28:44;11.32;;;8.23;;
30571;SDS011;17348;50.948;10.696;2023-06-22T10:31:47;13.50;;;8.40;;
30571;SDS011;17348;50.948;10.696;2023-06-22T10:34:49;11.85;;;7.40;;
30571;SDS011;17348;50.948;10.696;2023-06-22T10:37:52;11.00;;;7.32;;
30571;SDS011;17348;50.948;10.696;2023-06-22T10:40:56;12.82;;;7.03;;
30571;SDS011;17348;50.948;10.696;2023-06-22T10:43:58;9.20;;;6.72;;
30571;SDS011;17348;50.948;10.696;2023-06-22T10:47:01;8.80;;;6.47;;
30571;SDS011;17348;50.948;10.696;2023-06-22T10:50:04;12.60;;;7.10;;
30571;SDS011;17348;50.948;10.696;2023-06-22T10:53:07;10.48;;;6.95;;
30571;SDS011;17348;50.948;10.696;2023-06-22T10:56:11;8.40;;;6.70;;
30571;SDS011;17348;50.948;10.696;2023-06-22T10:59:13;20.67;;;7.80;;
30571;SDS011;17348;50.948;10.696;2023-06-22T11:02:15;16.27;;;7.25;;
30571;SDS011;17348;50.948;10.696;2023-06-22T11:05:18;11.00;;;6.85;;
30571;SDS011;17348;50.948;10.696;2023-06-22T11:08:20;11.60;;;7.43;;
30571;SDS011;17348;50.948;10.696;2023-06-22T11:11:24;11.20;;;6.72;;
30571;SDS011;17348;50.948;10.696;2023-06-22T11:14:27;12.60;;;6.93;;
30571;SDS011;17348;50.948;10.696;2023-06-22T11:17:29;8.88;;;6.38;;
30571;SDS011;17348;50.948;10.696;2023-06-22T11:20:32;10.65;;;6.93;;
30571;SDS011;17348;50.948;10.696;2023-06-22T11:23:38;10.35;;;6.38;;
30571;SDS011;17348;50.948;10.696;2023-06-22T11:26:42;13.07;;;6.53;;
30571;SDS011;17348;50.948;10.696;2023-06-22T11:29:45;13.45;;;7.32;;
30571;SDS011;17348;50.948;10.696;2023-06-22T11:32:47;12.02;;;7.07;;
30571;SDS011;17348;50.948;10.696;2023-06-22T11:35:49;13.00;;;6.35;;
30571;SDS011;17348;50.948;10.696;2023-06-22T11:38:52;17.95;;;7.78;;
30571;SDS011;17348;50.948;10.696;2023-06-22T11:41:55;11.93;;;6.78;;
30571;SDS011;17348;50.948;10.696;2023-06-22T11:44:58;12.50;;;7.45;;
30571;SDS011;17348;50.948;10.696;2023-06-22T11:48:00;11.68;;;7.63;;
30571;SDS011;17348;50.948;10.696;2023-06-22T11:51:02;12.48;;;7.40;;
30571;SDS011;17348;50.948;10.696;2023-06-22T11:54:06;10.93;;;7.28;;
30571;SDS011;17348;50.948;10.696;2023-06-22T11:57:10;13.13;;;7.00;;
30571;SDS011;17348;50.948;10.696;2023-06-22T12:00:16;12.40;;;7.45;;
30571;SDS011;17348;50.948;10.696;2023-06-22T12:03:19;10.10;;;7.28;;
30571;SDS011;17348;50.948;10.696;2023-06-22T12:06:22;12.10;;;6.95;;
30571;SDS011;17348;50.948;10.696;2023-06-22T12:09:25;11.52;;;6.90;;
30571;SDS011;17348;50.948;10.696;2023-06-22T12:12:28;11.85;;;6.55;;
30571;SDS011;17348;50.948;10.696;2023-06-22T12:15:31;9.77;;;6.57;;
30571;SDS011;17348;50.948;10.696;2023-06-22T12:18:33;11.00;;;6.63;;
30571;SDS011;17348;50.948;10.696;2023-06-22T12:21:36;16.73;;;6.63;;
30571;SDS011;17348;50.948;10.696;2023-06-22T12:24:39;10.60;;;6.57;;
30571;SDS011;17348;50.948;10.696;2023-06-22T12:27:43;13.45;;;7.00;;
30571;SDS011;17348;50.948;10.696;2023-06-22T12:30:45;10.82;;;7.03;;
30571;SDS011;17348;50.948;10.696;2023-06-22T12:33:48;9.02;;;6.57;;
30571;SDS011;17348;50.948;10.696;2023-06-22T12:36:50;12.40;;;6.15;;
30571;SDS011;17348;50.948;10.696;2023-06-22T12:39:55;9.52;;;6.45;;
30571;SDS011;17348;50.948;10.696;2023-06-22T12:42:58;9.23;;;6.00;;
30571;SDS011;17348;50.948;10.696;2023-06-22T12:46:02;12.32;;;6.57;;
30571;SDS011;17348;50.948;10.696;2023-06-22T12:49:05;9.52;;;6.57;;
30571;SDS011;17348;50.948;10.696;2023-06-22T12:52:09;8.50;;;5.80;;
30571;SDS011;17348;50.948;10.696;2023-06-22T12:55:12;10.82;;;5.60;;
30571;SDS011;17348;50.948;10.696;2023-06-22T12:58:18;13.63;;;6.70;;
30571;SDS011;17348;50.948;10.696;2023-06-22T13:01:21;12.23;;;6.82;;
30571;SDS011;17348;50.948;10.696;2023-06-22T13:04:23;12.82;;;6.70;;
30571;SDS011;17348;50.948;10.696;2023-06-22T13:07:25;13.63;;;6.28;;
30571;SDS011;17348;50.948;10.696;2023-06-22T13:10:28;11.95;;;7.03;;
30571;SDS011;17348;50.948;10.696;2023-06-22T13:13:31;13.52;;;6.65;;
30571;SDS011;17348;50.948;10.696;2023-06-22T13:16:34;15.80;;;7.10;;
30571;SDS011;17348;50.948;10.696;2023-06-22T13:19:37;12.77;;;6.85;;
30571;SDS011;17348;50.948;10.696;2023-06-22T13:22:42;11.07;;;6.97;;
30571;SDS011;17348;50.948;10.696;2023-06-22T13:25:44;13.75;;;6.60;;
30571;SDS011;17348;50.948;10.696;2023-06-22T13:28:48;12.93;;;6.50;;
30571;SDS011;17348;50.948;10.696;2023-06-22T13:31:50;14.65;;;6.55;;
30571;SDS011;17348;50.948;10.696;2023-06-22T13:34:53;9.73;;;6.28;;
30571;SDS011;17348;50.948;10.696;2023-06-22T13:37:56;16.90;;;7.75;;
30571;SDS011;17348;50.948;10.696;2023-06-22T13:40:58;16.85;;;6.60;;
30571;SDS011;17348;50.948;10.696;2023-06-22T13:44:03;14.77;;;6.55;;
30571;SDS011;17348;50.948;10.696;2023-06-22T13:47:05;8.48;;;5.78;;
30571;SDS011;17348;50.948;10.696;2023-06-22T13:50:08;10.52;;;6.38;;
30571;SDS011;17348;50.948;10.696;2023-06-22T13:53:15;15.23;;;6.15;;
30571;SDS011;17348;50.948;10.696;2023-06-22T13:56:17;14.98;;;5.90;;
30571;SDS011;17348;50.948;10.696;2023-06-22T13:59:21;17.05;;;7.05;;
30571;SDS011;17348;50.948;10.696;2023-06-22T14:02:25;11.55;;;6.28;;
30571;SDS011;17348;50.948;10.696;2023-06-22T14:05:28;10.60;;;6.50;;
30571;SDS011;17348;50.948;10.696;2023-06-22T14:08:30;18.10;;;5.97;;
30571;SDS011;17348;50.948;10.696;2023-06-22T14:11:33;8.65;;;5.85;;
30571;SDS011;17348;50.948;10.696;2023-06-22T14:14:36;14.70;;;6.55;;
30571;SDS011;17348;50.948;10.696;2023-06-22T14:17:39;16.27;;;6.22;;
30571;SDS011;17348;50.948;10.696;2023-06-22T14:20:41;12.13;;;6.60;;
30571;SDS011;17348;50.948;10.696;2023-06-22T14:23:43;14.85;;;6.32;;
30571;SDS011;17348;50.948;10.696;2023-06-22T14:26:49;11.90;;;6.63;;
30571;SDS011;17348;50.948;10.696;2023-06-22T14:29:53;14.95;;;7.10;;
30571;SDS011;17348;50.948;10.696;2023-06-22T14:32:55;15.10;;;6.57;;
30571;SDS011;17348;50.948;10.696;2023-06-22T14:35:58;12.50;;;7.07;;
30571;SDS011;17348;50.948;10.696;2023-06-22T14:39:00;10.20;;;6.18;;
30571;SDS011;17348;50.948;10.696;2023-06-22T14:42:02;8.55;;;6.35;;
30571;SDS011;17348;50.948;10.696;2023-06-22T14:45:07;15.95;;;6.90;;
30571;SDS011;17348;50.948;10.696;2023-06-22T14:48:10;11.25;;;6.97;;
30571;SDS011;17348;50.948;10.696;2023-06-22T14:51:12;10.43;;;7.10;;
30571;SDS011;17348;50.948;10.696;2023-06-22T14:54:14;18.48;;;7.22;;
30571;SDS011;17348;50.948;10.696;2023-06-22T14:57:17;9.32;;;6.82;;
30571;SDS011;17348;50.948;10.696;2023-06-22T15:00:22;9.88;;;6.32;;
30571;SDS011;17348;50.948;10.696;2023-06-22T15:03:24;15.05;;;6.40;;
30571;SDS011;17348;50.948;10.696;2023-06-22T15:06:31;12.45;;;6.90;;
30571;SDS011;17348;50.948;10.696;2023-06-22T15:09:33;13.48;;;6.20;;
30571;SDS011;17348;50.948;10.696;2023-06-22T15:12:35;11.13;;;6.63;;
30571;SDS011;17348;50.948;10.696;2023-06-22T15:15:39;9.68;;;6.55;;
30571;SDS011;17348;50.948;10.696;2023-06-22T15:18:41;13.32;;;6.70;;
30571;SDS011;17348;50.948;10.696;2023-06-22T15:21:45;14.88;;;7.20;;
30571;SDS011;17348;50.948;10.696;2023-06-22T15:24:48;10.35;;;6.53;;
30571;SDS011;17348;50.948;10.696;2023-06-22T15:27:53;9.88;;;6.43;;
30571;SDS011;17348;50.948;10.696;2023-06-22T15:30:57;13.82;;;6.57;;
30571;SDS011;17348;50.948;10.696;2023-06-22T15:34:02;9.68;;;6.38;;
30571;SDS011;17348;50.948;10.696;2023-06-22T15:37:04;9.23;;;6.22;;
30571;SDS011;17348;50.948;10.696;2023-06-22T15:40:07;10.50;;;7.10;;
30571;SDS011;17348;50.948;10.696;2023-06-22T15:43:10;11.55;;;6.43;;
30571;SDS011;17348;50.948;10.696;2023-06-22T15:46:15;10.57;;;7.10;;
30571;SDS011;17348;50.948;10.696;2023-06-22T15:49:18;12.23;;;7.13;;
30571;SDS011;17348;50.948;10.696;2023-06-22T15:52:20;9.95;;;6.18;;
30571;SDS011;17348;50.948;10.696;2023-06-22T15:55:23;11.52;;;6.78;;
30571;SDS011;17348;50.948;10.696;2023-06-22T15:58:27;14.60;;;6.60;;
30571;SDS011;17348;50.948;10.696;2023-06-22T16:01:30;10.27;;;6.57;;
30571;SDS011;17348;50.948;10.696;2023-06-22T16:04:33;12.23;;;6.88;;
30571;SDS011;17348;50.948;10.696;2023-06-22T16:07:35;12.60;;;6.88;;
30571;SDS011;17348;50.948;10.696;2023-06-22T16:10:38;12.50;;;6.75;;
30571;SDS011;17348;50.948;10.696;2023-06-22T16:13:40;9.77;;;6.32;;
30571;SDS011;17348;50.948;10.696;2023-06-22T16:16:44;8.55;;;6.60;;
30571;SDS011;17348;50.948;10.696;2023-06-22T16:19:47;21.52;;;7.70;;
30571;SDS011;17348;50.948;10.696;2023-06-22T16:22:49;13.88;;;6.55;;
30571;SDS011;17348;50.948;10.696;2023-06-22T16:25:52;9.90;;;6.53;;
30571;SDS011;17348;50.948;10.696;2023-06-22T16:28:54;10.95;;;6.07;;
30571;SDS011;17348;50.948;10.696;2023-06-22T16:31:58;12.25;;;6.47;;
30571;SDS011;17348;50.948;10.696;2023-06-22T16:35:00;12.50;;;6.97;;
30571;SDS011;17348;50.948;10.696;2023-06-22T16:38:02;10.48;;;6.65;;
30571;SDS011;17348;50.948;10.696;2023-06-22T16:41:05;13.48;;;7.28;;
30571;SDS011;17348;50.948;10.696;2023-06-22T16:44:07;18.88;;;6.90;;
30571;SDS011;17348;50.948;10.696;2023-06-22T16:47:11;16.83;;;7.13;;
30571;SDS011;17348;50.948;10.696;2023-06-22T16:50:14;10.68;;;6.70;;
30571;SDS011;17348;50.948;10.696;2023-06-22T16:53:17;16.02;;;6.55;;
30571;SDS011;17348;50.948;10.696;2023-06-22T16:56:23;20.98;;;7.03;;
30571;SDS011;17348;50.948;10.696;2023-06-22T16:59:27;13.90;;;6.93;;
30571;SDS011;17348;50.948;10.696;2023-06-22T17:02:31;14.25;;;7.13;;
30571;SDS011;17348;50.948;10.696;2023-06-22T17:05:35;9.35;;;6.57;;
30571;SDS011;17348;50.948;10.696;2023-06-22T17:08:38;12.73;;;7.32;;
30571;SDS011;17348;50.948;10.696;2023-06-22T17:11:42;14.50;;;7.75;;
30571;SDS011;17348;50.948;10.696;2023-06-22T17:14:45;15.35;;;6.72;;
30571;SDS011;17348;50.948;10.696;2023-06-22T17:17:48;17.98;;;7.32;;
30571;SDS011;17348;50.948;10.696;2023-06-22T17:20:51;10.90;;;7.25;;
30571;SDS011;17348;50.948;10.696;2023-06-22T17:23:53;12.55;;;6.70;;
30571;SDS011;17348;50.948;10.696;2023-06-22T17:26:56;12.10;;;7.53;;
30571;SDS011;17348;50.948;10.696;2023-06-22T17:30:08;15.10;;;7.28;;
30571;SDS011;17348;50.948;10.696;2023-06-22T17:33:15;19.40;;;7.07;;
30571;SDS011;17348;50.948;10.696;2023-06-22T17:36:19;12.38;;;7.30;;
30571;SDS011;17348;50.948;10.696;2023-06-22T17:39:22;12.93;;;7.85;;
30571;SDS011;17348;50.948;10.696;2023-06-22T17:42:26;13.68;;;6.85;;
30571;SDS011;17348;50.948;10.696;2023-06-22T17:45:29;19.58;;;8.75;;
30571;SDS011;17348;50.948;10.696;2023-06-22T17:48:33;14.00;;;7.00;;
30571;SDS011;17348;50.948;10.696;2023-06-22T17:51:36;26.30;;;7.90;;
30571;SDS011;17348;50.948;10.696;2023-06-22T17:54:40;9.98;;;7.03;;
30571;SDS011;17348;50.948;10.696;2023-06-22T17:57:42;13.30;;;7.05;;